sensor_id;sensor_type;location;lat;lon;timestamp;temperature;humidity
10662;DHT22;5379;51.034;7.006;2023-12-28T00:05:37;11.70;99.90
10662;DHT22;5379;51.034;7.006;2023-12-28T00:08:05;11.60;99.90
10662;DHT22;5379;51.034;7.006;2023-12-28T00:10:31;11.60;99.90
10662;DHT22;5379;51.034;7.006;2023-12-28T00:12:58;11.60;99.90
10662;DHT22;5379;51.034;7.006;2023-12-28T00:15:27;11.40;99.90
10662;DHT22;5379;51.034;7.006;2023-12-28T00:17:57;11.40;99.90
10662;DHT22;5379;51.034;7.006;2023-12-28T00:20:24;11.30;99.90
10662;DHT22;5379;51.034;7.006;2023-12-28T00:22:54;11.40;99.90
10662;DHT22;5379;51.034;7.006;2023-12-28T00:25:20;11.40;99.90
10662;DHT22;5379;51.034;7.006;2023-12-28T00:27:47;11.40;99.90
10662;DHT22;5379;51.034;7.006;2023-12-28T00:30:14;11.40;99.90
10662;DHT22;5379;51.034;7.006;2023-12-28T00:32:44;11.50;99.90
10662;DHT22;5379;51.034;7.006;2023-12-28T00:35:11;11.50;99.90
10662;DHT22;5379;51.034;7.006;2023-12-28T00:37:38;11.60;99.90
10662;DHT22;5379;51.034;7.006;2023-12-28T00:40:06;11.80;99.90
10662;DHT22;5379;51.034;7.006;2023-12-28T00:42:33;11.80;99.90
10662;DHT22;5379;51.034;7.006;2023-12-28T00:45:00;11.80;99.90
10662;DHT22;5379;51.034;7.006;2023-12-28T00:47:28;12.00;99.90
10662;DHT22;5379;51.034;7.006;2023-12-28T00:49:56;12.00;99.90
10662;DHT22;5379;51.034;7.006;2023-12-28T00:52:23;12.00;99.90
10662;DHT22;5379;51.034;7.006;2023-12-28T00:54:49;12.00;99.90
10662;DHT22;5379;51.034;7.006;2023-12-28T00:57:16;12.00;99.90
10662;DHT22;5379;51.034;7.006;2023-12-28T00:59:43;12.00;99.90
10662;DHT22;5379;51.034;7.006;2023-12-28T05:31:27;10.70;99.90
10662;DHT22;5379;51.034;7.006;2023-12-28T05:33:54;10.80;99.90
10662;DHT22;5379;51.034;7.006;2023-12-28T05:36:22;11.10;99.90
10662;DHT22;5379;51.034;7.006;2023-12-28T05:38:49;10.80;99.90
10662;DHT22;5379;51.034;7.006;2023-12-28T05:41:16;10.80;99.90
10662;DHT22;5379;51.034;7.006;2023-12-28T05:43:43;10.80;99.90
10662;DHT22;5379;51.034;7.006;2023-12-28T05:46:09;10.70;99.90
10662;DHT22;5379;51.034;7.006;2023-12-28T05:48:38;10.70;99.90
10662;DHT22;5379;51.034;7.006;2023-12-28T05:51:05;10.60;99.90
10662;DHT22;5379;51.034;7.006;2023-12-28T05:53:31;10.70;99.90
10662;DHT22;5379;51.034;7.006;2023-12-28T05:55:58;10.80;99.90
10662;DHT22;5379;51.034;7.006;2023-12-28T05:58:28;10.80;99.90
10662;DHT22;5379;51.034;7.006;2023-12-28T06:00:55;10.80;99.90
10662;DHT22;5379;51.034;7.006;2023-12-28T06:03:22;10.80;99.90
10662;DHT22;5379;51.034;7.006;2023-12-28T06:05:54;10.90;99.90
10662;DHT22;5379;51.034;7.006;2023-12-28T06:08:21;10.90;99.90
10662;DHT22;5379;51.034;7.006;2023-12-28T06:10:48;10.90;99.90
10662;DHT22;5379;51.034;7.006;2023-12-28T06:13:15;12.30;99.90
10662;DHT22;5379;51.034;7.006;2023-12-28T06:15:42;10.70;99.90
10662;DHT22;5379;51.034;7.006;2023-12-28T06:20:36;10.80;99.90
10662;DHT22;5379;51.034;7.006;2023-12-28T06:23:06;10.80;99.90
10662;DHT22;5379;51.034;7.006;2023-12-28T06:25:34;10.80;99.90
10662;DHT22;5379;51.034;7.006;2023-12-28T06:28:01;10.90;99.90
10662;DHT22;5379;51.034;7.006;2023-12-28T06:30:28;11.00;99.90
10662;DHT22;5379;51.034;7.006;2023-12-28T06:32:54;11.10;99.90
10662;DHT22;5379;51.034;7.006;2023-12-28T06:35:21;11.10;99.90
10662;DHT22;5379;51.034;7.006;2023-12-28T06:37:48;11.10;99.90
10662;DHT22;5379;51.034;7.006;2023-12-28T06:40:16;11.20;99.90
10662;DHT22;5379;51.034;7.006;2023-12-28T06:42:43;11.20;99.90
10662;DHT22;5379;51.034;7.006;2023-12-28T06:45:10;11.20;99.90
10662;DHT22;5379;51.034;7.006;2023-12-28T06:47:37;11.20;99.90
10662;DHT22;5379;51.034;7.006;2023-12-28T06:50:04;14.10;99.90
10662;DHT22;5379;51.034;7.006;2023-12-28T06:52:33;11.00;99.90
10662;DHT22;5379;51.034;7.006;2023-12-28T06:54:59;11.00;99.90
10662;DHT22;5379;51.034;7.006;2023-12-28T06:57:28;11.00;99.90
10662;DHT22;5379;51.034;7.006;2023-12-28T07:02:23;11.10;99.90
10662;DHT22;5379;51.034;7.006;2023-12-28T07:04:50;11.10;99.90
10662;DHT22;5379;51.034;7.006;2023-12-28T07:07:17;11.20;99.90
10662;DHT22;5379;51.034;7.006;2023-12-28T07:12:11;11.10;99.90
10662;DHT22;5379;51.034;7.006;2023-12-28T07:14:39;11.10;99.90
10662;DHT22;5379;51.034;7.006;2023-12-28T07:17:06;11.10;99.90
10662;DHT22;5379;51.034;7.006;2023-12-28T07:19:33;11.00;99.90
10662;DHT22;5379;51.034;7.006;2023-12-28T07:26:54;10.80;99.90
10662;DHT22;5379;51.034;7.006;2023-12-28T07:29:21;10.80;99.90
10662;DHT22;5379;51.034;7.006;2023-12-28T07:31:49;10.80;99.90
10662;DHT22;5379;51.034;7.006;2023-12-28T07:34:16;10.80;99.90
10662;DHT22;5379;51.034;7.006;2023-12-28T07:36:43;10.90;99.90
10662;DHT22;5379;51.034;7.006;2023-12-28T07:39:10;10.90;99.90
10662;DHT22;5379;51.034;7.006;2023-12-28T07:41:37;10.90;99.90
10662;DHT22;5379;51.034;7.006;2023-12-28T07:44:04;11.00;99.90
10662;DHT22;5379;51.034;7.006;2023-12-28T07:46:31;10.90;99.90
10662;DHT22;5379;51.034;7.006;2023-12-28T07:48:59;10.90;99.90
10662;DHT22;5379;51.034;7.006;2023-12-28T07:51:26;11.00;99.90
10662;DHT22;5379;51.034;7.006;2023-12-28T07:53:52;11.00;99.90
10662;DHT22;5379;51.034;7.006;2023-12-28T07:56:19;11.10;99.90
10662;DHT22;5379;51.034;7.006;2023-12-28T07:58:46;11.20;99.90
10662;DHT22;5379;51.034;7.006;2023-12-28T08:01:13;11.30;99.90
10662;DHT22;5379;51.034;7.006;2023-12-28T08:03:40;11.10;99.90
10662;DHT22;5379;51.034;7.006;2023-12-28T08:06:08;11.10;99.90
10662;DHT22;5379;51.034;7.006;2023-12-28T08:08:38;11.10;99.90
10662;DHT22;5379;51.034;7.006;2023-12-28T08:13:32;11.20;99.90
10662;DHT22;5379;51.034;7.006;2023-12-28T08:18:26;11.20;99.90
10662;DHT22;5379;51.034;7.006;2023-12-28T08:20:53;11.30;99.90
10662;DHT22;5379;51.034;7.006;2023-12-28T08:23:21;11.30;99.90
10662;DHT22;5379;51.034;7.006;2023-12-28T08:25:48;11.30;99.90
10662;DHT22;5379;51.034;7.006;2023-12-28T08:28:14;12.10;99.90
10662;DHT22;5379;51.034;7.006;2023-12-28T08:30:42;11.40;99.90
10662;DHT22;5379;51.034;7.006;2023-12-28T08:33:09;11.40;99.90
10662;DHT22;5379;51.034;7.006;2023-12-28T08:35:36;11.40;99.90
10662;DHT22;5379;51.034;7.006;2023-12-28T08:40:33;11.30;99.90
10662;DHT22;5379;51.034;7.006;2023-12-28T08:43:00;11.20;99.90
10662;DHT22;5379;51.034;7.006;2023-12-28T08:45:26;11.30;99.90
10662;DHT22;5379;51.034;7.006;2023-12-28T08:50:20;11.40;99.90
10662;DHT22;5379;51.034;7.006;2023-12-28T08:53:13;11.40;99.90
10662;DHT22;5379;51.034;7.006;2023-12-28T08:58:08;11.40;99.90
10662;DHT22;5379;51.034;7.006;2023-12-28T09:00:35;11.40;99.90
10662;DHT22;5379;51.034;7.006;2023-12-28T09:03:03;11.50;99.90
10662;DHT22;5379;51.034;7.006;2023-12-28T09:05:30;11.50;99.90
10662;DHT22;5379;51.034;7.006;2023-12-28T09:07:56;11.50;99.90
10662;DHT22;5379;51.034;7.006;2023-12-28T09:10:23;11.60;99.90
10662;DHT22;5379;51.034;7.006;2023-12-28T09:12:51;11.70;99.90
10662;DHT22;5379;51.034;7.006;2023-12-28T09:15:18;11.70;99.90
10662;DHT22;5379;51.034;7.006;2023-12-28T09:17:45;11.80;99.90
10662;DHT22;5379;51.034;7.006;2023-12-28T09:20:12;11.80;99.90
10662;DHT22;5379;51.034;7.006;2023-12-28T09:22:39;11.90;99.90
10662;DHT22;5379;51.034;7.006;2023-12-28T09:25:07;12.00;99.90
10662;DHT22;5379;51.034;7.006;2023-12-28T09:27:34;12.10;99.90
10662;DHT22;5379;51.034;7.006;2023-12-28T09:32:29;12.30;99.90
10662;DHT22;5379;51.034;7.006;2023-12-28T09:39:50;12.50;99.90
10662;DHT22;5379;51.034;7.006;2023-12-28T09:42:23;12.70;99.90
10662;DHT22;5379;51.034;7.006;2023-12-28T09:44:52;13.20;99.90
10662;DHT22;5379;51.034;7.006;2023-12-28T09:47:20;12.70;99.90
10662;DHT22;5379;51.034;7.006;2023-12-28T09:49:47;12.90;99.90
10662;DHT22;5379;51.034;7.006;2023-12-28T09:52:14;12.80;99.90
10662;DHT22;5379;51.034;7.006;2023-12-28T09:54:41;12.90;99.90
10662;DHT22;5379;51.034;7.006;2023-12-28T09:57:08;13.20;99.90
10662;DHT22;5379;51.034;7.006;2023-12-28T09:59:36;13.10;99.90
10662;DHT22;5379;51.034;7.006;2023-12-28T10:02:04;13.10;99.90
10662;DHT22;5379;51.034;7.006;2023-12-28T10:04:33;13.00;99.90
10662;DHT22;5379;51.034;7.006;2023-12-28T10:07:00;15.10;99.90
10662;DHT22;5379;51.034;7.006;2023-12-28T10:09:27;13.90;99.90
10662;DHT22;5379;51.034;7.006;2023-12-28T10:11:54;14.20;99.90
10662;DHT22;5379;51.034;7.006;2023-12-28T10:14:22;14.20;99.90
10662;DHT22;5379;51.034;7.006;2023-12-28T10:16:49;14.40;99.90
10662;DHT22;5379;51.034;7.006;2023-12-28T10:19:21;14.80;99.90
10662;DHT22;5379;51.034;7.006;2023-12-28T10:24:17;14.70;99.90
10662;DHT22;5379;51.034;7.006;2023-12-28T10:29:11;15.20;99.90
10662;DHT22;5379;51.034;7.006;2023-12-28T10:31:41;15.00;99.90
10662;DHT22;5379;51.034;7.006;2023-12-28T10:34:09;15.00;99.90
10662;DHT22;5379;51.034;7.006;2023-12-28T10:36:35;15.40;99.90
10662;DHT22;5379;51.034;7.006;2023-12-28T10:39:09;15.00;99.90
10662;DHT22;5379;51.034;7.006;2023-12-28T10:41:39;15.10;99.90
10662;DHT22;5379;51.034;7.006;2023-12-28T10:44:08;14.70;99.90
10662;DHT22;5379;51.034;7.006;2023-12-28T10:46:40;16.30;99.90
10662;DHT22;5379;51.034;7.006;2023-12-28T10:49:10;15.10;99.90
10662;DHT22;5379;51.034;7.006;2023-12-28T10:51:40;15.60;99.90
10662;DHT22;5379;51.034;7.006;2023-12-28T10:54:19;16.80;99.90
10662;DHT22;5379;51.034;7.006;2023-12-28T10:56:52;16.80;99.90
10662;DHT22;5379;51.034;7.006;2023-12-28T10:59:31;17.10;99.90
10662;DHT22;5379;51.034;7.006;2023-12-28T11:02:03;16.80;99.90
10662;DHT22;5379;51.034;7.006;2023-12-28T11:04:37;16.40;99.90
10662;DHT22;5379;51.034;7.006;2023-12-28T11:07:09;16.00;99.90
10662;DHT22;5379;51.034;7.006;2023-12-28T11:09:40;16.10;99.90
10662;DHT22;5379;51.034;7.006;2023-12-28T11:12:08;16.10;99.90
10662;DHT22;5379;51.034;7.006;2023-12-28T11:14:36;16.10;99.90
10662;DHT22;5379;51.034;7.006;2023-12-28T11:17:06;16.10;99.90
10662;DHT22;5379;51.034;7.006;2023-12-28T11:19:33;17.00;99.90
10662;DHT22;5379;51.034;7.006;2023-12-28T11:22:01;16.90;99.90
10662;DHT22;5379;51.034;7.006;2023-12-28T11:24:29;16.70;99.90
10662;DHT22;5379;51.034;7.006;2023-12-28T11:26:58;16.90;99.90
10662;DHT22;5379;51.034;7.006;2023-12-28T11:29:25;16.60;99.90
10662;DHT22;5379;51.034;7.006;2023-12-28T11:31:52;16.00;99.90
10662;DHT22;5379;51.034;7.006;2023-12-28T11:36:49;16.40;99.90
10662;DHT22;5379;51.034;7.006;2023-12-28T11:39:29;16.40;99.90
10662;DHT22;5379;51.034;7.006;2023-12-28T11:42:01;16.70;99.90
10662;DHT22;5379;51.034;7.006;2023-12-28T11:44:28;16.50;99.90
10662;DHT22;5379;51.034;7.006;2023-12-28T11:46:55;16.90;99.90
10662;DHT22;5379;51.034;7.006;2023-12-28T11:49:25;16.40;99.90
10662;DHT22;5379;51.034;7.006;2023-12-28T11:51:55;16.90;99.90
10662;DHT22;5379;51.034;7.006;2023-12-28T11:54:24;17.70;99.90
10662;DHT22;5379;51.034;7.006;2023-12-28T11:56:55;16.60;99.90
10662;DHT22;5379;51.034;7.006;2023-12-28T12:04:17;15.70;99.90
10662;DHT22;5379;51.034;7.006;2023-12-28T12:06:44;15.20;99.90
10662;DHT22;5379;51.034;7.006;2023-12-28T12:09:13;15.10;99.90
10662;DHT22;5379;51.034;7.006;2023-12-28T12:11:40;14.90;99.90
10662;DHT22;5379;51.034;7.006;2023-12-28T12:14:08;14.90;99.90
10662;DHT22;5379;51.034;7.006;2023-12-28T12:21:32;14.70;99.90
10662;DHT22;5379;51.034;7.006;2023-12-28T12:23:59;14.60;99.90
10662;DHT22;5379;51.034;7.006;2023-12-28T12:26:28;14.70;99.90
10662;DHT22;5379;51.034;7.006;2023-12-28T12:28:55;14.80;99.90
10662;DHT22;5379;51.034;7.006;2023-12-28T12:31:23;14.80;99.90
10662;DHT22;5379;51.034;7.006;2023-12-28T12:33:52;14.90;99.90
10662;DHT22;5379;51.034;7.006;2023-12-28T12:36:19;14.80;99.90
10662;DHT22;5379;51.034;7.006;2023-12-28T12:38:47;14.80;99.90
10662;DHT22;5379;51.034;7.006;2023-12-28T12:41:14;14.90;99.90
10662;DHT22;5379;51.034;7.006;2023-12-28T12:43:41;15.00;99.90
10662;DHT22;5379;51.034;7.006;2023-12-28T12:46:08;14.90;99.90
10662;DHT22;5379;51.034;7.006;2023-12-28T12:51:05;14.90;99.90
10662;DHT22;5379;51.034;7.006;2023-12-28T12:53:34;15.10;99.90
10662;DHT22;5379;51.034;7.006;2023-12-28T12:56:03;15.20;99.90
10662;DHT22;5379;51.034;7.006;2023-12-28T13:01:10;15.10;99.90
10662;DHT22;5379;51.034;7.006;2023-12-28T13:03:40;14.70;99.90
10662;DHT22;5379;51.034;7.006;2023-12-28T13:06:08;14.60;99.90
10662;DHT22;5379;51.034;7.006;2023-12-28T13:08:35;14.80;99.90
10662;DHT22;5379;51.034;7.006;2023-12-28T13:11:01;14.80;99.90
10662;DHT22;5379;51.034;7.006;2023-12-28T13:13:28;14.70;99.90
10662;DHT22;5379;51.034;7.006;2023-12-28T13:15:55;14.80;99.90
10662;DHT22;5379;51.034;7.006;2023-12-28T13:18:22;14.80;99.90
10662;DHT22;5379;51.034;7.006;2023-12-28T13:20:50;14.60;99.90
10662;DHT22;5379;51.034;7.006;2023-12-28T13:23:19;14.50;99.90
10662;DHT22;5379;51.034;7.006;2023-12-28T13:25:47;14.70;99.90
10662;DHT22;5379;51.034;7.006;2023-12-28T13:28:14;14.70;99.90
10662;DHT22;5379;51.034;7.006;2023-12-28T13:30:42;14.80;99.90
10662;DHT22;5379;51.034;7.006;2023-12-28T13:33:09;14.80;99.90
10662;DHT22;5379;51.034;7.006;2023-12-28T13:35:36;14.90;99.90
10662;DHT22;5379;51.034;7.006;2023-12-28T13:38:04;14.90;99.90
10662;DHT22;5379;51.034;7.006;2023-12-28T13:40:33;14.70;99.90
10662;DHT22;5379;51.034;7.006;2023-12-28T13:43:00;14.70;99.90
10662;DHT22;5379;51.034;7.006;2023-12-28T13:45:28;14.60;99.90
10662;DHT22;5379;51.034;7.006;2023-12-28T13:47:55;14.30;99.90
10662;DHT22;5379;51.034;7.006;2023-12-28T13:50:22;14.40;99.90
10662;DHT22;5379;51.034;7.006;2023-12-28T13:52:49;14.50;99.90
10662;DHT22;5379;51.034;7.006;2023-12-28T13:55:16;14.40;99.90
10662;DHT22;5379;51.034;7.006;2023-12-28T13:57:44;14.30;99.90
10662;DHT22;5379;51.034;7.006;2023-12-28T14:00:14;14.50;99.90
10662;DHT22;5379;51.034;7.006;2023-12-28T14:02:41;14.50;99.90
10662;DHT22;5379;51.034;7.006;2023-12-28T14:05:08;14.40;99.90
10662;DHT22;5379;51.034;7.006;2023-12-28T14:07:35;14.40;99.90
10662;DHT22;5379;51.034;7.006;2023-12-28T14:10:03;14.50;99.90
10662;DHT22;5379;51.034;7.006;2023-12-28T14:12:33;14.50;99.90
10662;DHT22;5379;51.034;7.006;2023-12-28T14:18:19;14.20;99.90
10662;DHT22;5379;51.034;7.006;2023-12-28T14:20:46;14.10;99.90
10662;DHT22;5379;51.034;7.006;2023-12-28T14:23:14;14.20;99.90
10662;DHT22;5379;51.034;7.006;2023-12-28T14:25:41;14.50;99.90
10662;DHT22;5379;51.034;7.006;2023-12-28T14:28:09;14.60;99.90
10662;DHT22;5379;51.034;7.006;2023-12-28T14:30:36;14.40;99.90
10662;DHT22;5379;51.034;7.006;2023-12-28T14:33:04;14.50;99.90
10662;DHT22;5379;51.034;7.006;2023-12-28T14:35:33;14.10;99.90
10662;DHT22;5379;51.034;7.006;2023-12-28T14:38:00;14.10;99.90
10662;DHT22;5379;51.034;7.006;2023-12-28T14:40:28;13.90;99.90
10662;DHT22;5379;51.034;7.006;2023-12-28T14:42:55;13.90;99.90
10662;DHT22;5379;51.034;7.006;2023-12-28T14:45:22;14.10;99.90
10662;DHT22;5379;51.034;7.006;2023-12-28T14:47:49;14.00;99.90
10662;DHT22;5379;51.034;7.006;2023-12-28T14:50:16;14.00;99.90
10662;DHT22;5379;51.034;7.006;2023-12-28T14:52:44;13.90;99.90
10662;DHT22;5379;51.034;7.006;2023-12-28T14:55:12;13.90;99.90
10662;DHT22;5379;51.034;7.006;2023-12-28T14:57:38;14.00;99.90
10662;DHT22;5379;51.034;7.006;2023-12-28T15:00:06;17.30;99.90
10662;DHT22;5379;51.034;7.006;2023-12-28T15:02:35;14.00;99.90
10662;DHT22;5379;51.034;7.006;2023-12-28T15:05:02;14.00;99.90
10662;DHT22;5379;51.034;7.006;2023-12-28T15:07:29;14.00;99.90
10662;DHT22;5379;51.034;7.006;2023-12-28T15:09:58;14.00;99.90
10662;DHT22;5379;51.034;7.006;2023-12-28T15:12:25;14.00;99.90
10662;DHT22;5379;51.034;7.006;2023-12-28T15:14:53;14.00;99.90
10662;DHT22;5379;51.034;7.006;2023-12-28T15:17:20;14.00;99.90
10662;DHT22;5379;51.034;7.006;2023-12-28T15:19:48;13.80;99.90
10662;DHT22;5379;51.034;7.006;2023-12-28T15:22:15;13.50;99.90
10662;DHT22;5379;51.034;7.006;2023-12-28T15:24:43;13.60;99.90
10662;DHT22;5379;51.034;7.006;2023-12-28T15:27:11;13.50;99.90
10662;DHT22;5379;51.034;7.006;2023-12-28T15:29:38;13.50;99.90
10662;DHT22;5379;51.034;7.006;2023-12-28T15:32:05;13.40;99.90
10662;DHT22;5379;51.034;7.006;2023-12-28T15:34:32;13.30;99.90
10662;DHT22;5379;51.034;7.006;2023-12-28T15:36:59;13.30;99.90
10662;DHT22;5379;51.034;7.006;2023-12-28T15:39:29;13.30;99.90
10662;DHT22;5379;51.034;7.006;2023-12-28T15:41:57;13.20;99.90
10662;DHT22;5379;51.034;7.006;2023-12-28T15:44:25;13.20;99.90
10662;DHT22;5379;51.034;7.006;2023-12-28T15:46:52;13.10;99.90
10662;DHT22;5379;51.034;7.006;2023-12-28T15:49:21;13.10;99.90
10662;DHT22;5379;51.034;7.006;2023-12-28T15:51:48;13.10;99.90
10662;DHT22;5379;51.034;7.006;2023-12-28T15:54:15;12.90;99.90
10662;DHT22;5379;51.034;7.006;2023-12-28T15:56:43;13.00;99.90
10662;DHT22;5379;51.034;7.006;2023-12-28T15:59:09;13.10;99.90
10662;DHT22;5379;51.034;7.006;2023-12-28T16:01:37;13.00;99.90
10662;DHT22;5379;51.034;7.006;2023-12-28T16:04:04;13.00;99.90
10662;DHT22;5379;51.034;7.006;2023-12-28T16:06:31;13.00;99.90
10662;DHT22;5379;51.034;7.006;2023-12-28T16:08:58;12.90;99.90
10662;DHT22;5379;51.034;7.006;2023-12-28T16:11:25;12.70;99.90
10662;DHT22;5379;51.034;7.006;2023-12-28T16:13:52;12.70;99.90
10662;DHT22;5379;51.034;7.006;2023-12-28T16:16:20;12.60;99.90
10662;DHT22;5379;51.034;7.006;2023-12-28T16:18:48;12.60;99.90
10662;DHT22;5379;51.034;7.006;2023-12-28T16:21:16;12.70;99.90
10662;DHT22;5379;51.034;7.006;2023-12-28T16:23:43;12.70;99.90
10662;DHT22;5379;51.034;7.006;2023-12-28T16:26:10;12.80;99.90
10662;DHT22;5379;51.034;7.006;2023-12-28T16:28:38;12.80;99.90
10662;DHT22;5379;51.034;7.006;2023-12-28T16:31:05;12.70;99.90
10662;DHT22;5379;51.034;7.006;2023-12-28T16:33:32;12.70;99.90
10662;DHT22;5379;51.034;7.006;2023-12-28T16:36:00;12.80;99.90
10662;DHT22;5379;51.034;7.006;2023-12-28T16:38:27;12.90;99.90
10662;DHT22;5379;51.034;7.006;2023-12-28T16:40:54;12.90;99.90
10662;DHT22;5379;51.034;7.006;2023-12-28T16:43:21;12.80;99.90
10662;DHT22;5379;51.034;7.006;2023-12-28T16:45:49;13.00;99.90
10662;DHT22;5379;51.034;7.006;2023-12-28T16:48:16;13.20;99.90
10662;DHT22;5379;51.034;7.006;2023-12-28T16:50:43;13.40;99.90
10662;DHT22;5379;51.034;7.006;2023-12-28T16:53:11;13.40;99.90
10662;DHT22;5379;51.034;7.006;2023-12-28T16:55:38;13.30;99.90
10662;DHT22;5379;51.034;7.006;2023-12-28T16:58:05;13.00;99.90
10662;DHT22;5379;51.034;7.006;2023-12-28T17:00:32;13.00;99.90
10662;DHT22;5379;51.034;7.006;2023-12-28T17:03:01;13.10;99.90
10662;DHT22;5379;51.034;7.006;2023-12-28T17:05:29;13.20;99.90
10662;DHT22;5379;51.034;7.006;2023-12-28T17:07:56;13.20;99.90
10662;DHT22;5379;51.034;7.006;2023-12-28T17:10:25;13.20;99.90
10662;DHT22;5379;51.034;7.006;2023-12-28T17:12:52;13.20;99.90
10662;DHT22;5379;51.034;7.006;2023-12-28T17:15:20;13.20;99.90
10662;DHT22;5379;51.034;7.006;2023-12-28T17:17:48;13.20;99.90
10662;DHT22;5379;51.034;7.006;2023-12-28T17:20:15;13.30;99.90
10662;DHT22;5379;51.034;7.006;2023-12-28T17:22:44;13.30;99.90
10662;DHT22;5379;51.034;7.006;2023-12-28T17:27:52;13.50;99.90
10662;DHT22;5379;51.034;7.006;2023-12-28T17:30:23;13.30;99.90
10662;DHT22;5379;51.034;7.006;2023-12-28T17:32:58;13.30;99.90
10662;DHT22;5379;51.034;7.006;2023-12-28T17:35:26;13.00;99.90
10662;DHT22;5379;51.034;7.006;2023-12-28T17:37:54;13.00;99.90
10662;DHT22;5379;51.034;7.006;2023-12-28T17:40:22;12.90;99.90
10662;DHT22;5379;51.034;7.006;2023-12-28T17:42:53;13.20;99.90
10662;DHT22;5379;51.034;7.006;2023-12-28T17:45:24;13.00;99.90
10662;DHT22;5379;51.034;7.006;2023-12-28T17:47:55;13.00;99.90
10662;DHT22;5379;51.034;7.006;2023-12-28T17:50:27;13.00;99.90
10662;DHT22;5379;51.034;7.006;2023-12-28T17:52:55;12.80;99.90
10662;DHT22;5379;51.034;7.006;2023-12-28T17:55:22;12.80;99.90
10662;DHT22;5379;51.034;7.006;2023-12-28T17:57:50;12.80;99.90
10662;DHT22;5379;51.034;7.006;2023-12-28T18:00:18;12.80;99.90
10662;DHT22;5379;51.034;7.006;2023-12-28T18:02:45;12.80;99.90
10662;DHT22;5379;51.034;7.006;2023-12-28T18:05:12;12.80;99.90
10662;DHT22;5379;51.034;7.006;2023-12-28T18:07:39;12.70;99.90
10662;DHT22;5379;51.034;7.006;2023-12-28T18:10:06;12.60;99.90
10662;DHT22;5379;51.034;7.006;2023-12-28T18:12:34;12.50;99.90
10662;DHT22;5379;51.034;7.006;2023-12-28T18:15:03;12.50;99.90
10662;DHT22;5379;51.034;7.006;2023-12-28T18:17:30;12.50;99.90
10662;DHT22;5379;51.034;7.006;2023-12-28T18:19:57;12.40;99.90
10662;DHT22;5379;51.034;7.006;2023-12-28T18:22:24;12.40;99.90
10662;DHT22;5379;51.034;7.006;2023-12-28T18:24:50;12.50;99.90
10662;DHT22;5379;51.034;7.006;2023-12-28T18:27:20;12.50;99.90
10662;DHT22;5379;51.034;7.006;2023-12-28T18:40:45;12.30;99.90
10662;DHT22;5379;51.034;7.006;2023-12-28T18:47:13;12.30;99.90
10662;DHT22;5379;51.034;7.006;2023-12-28T18:53:25;12.30;99.90
10662;DHT22;5379;51.034;7.006;2023-12-28T18:55:51;12.20;99.90
10662;DHT22;5379;51.034;7.006;2023-12-28T18:58:18;12.00;99.90
10662;DHT22;5379;51.034;7.006;2023-12-28T19:00:45;12.10;99.90
10662;DHT22;5379;51.034;7.006;2023-12-28T19:05:39;12.10;99.90
10662;DHT22;5379;51.034;7.006;2023-12-28T19:08:07;12.10;99.90
10662;DHT22;5379;51.034;7.006;2023-12-28T19:10:35;12.10;99.90
10662;DHT22;5379;51.034;7.006;2023-12-28T19:13:02;12.10;99.90
10662;DHT22;5379;51.034;7.006;2023-12-28T19:15:29;12.10;99.90
10662;DHT22;5379;51.034;7.006;2023-12-28T19:17:56;12.00;99.90
10662;DHT22;5379;51.034;7.006;2023-12-28T19:20:23;12.10;99.90
10662;DHT22;5379;51.034;7.006;2023-12-28T19:25:17;12.10;99.90
10662;DHT22;5379;51.034;7.006;2023-12-28T19:27:46;12.10;99.90
10662;DHT22;5379;51.034;7.006;2023-12-28T19:30:15;13.00;99.90
10662;DHT22;5379;51.034;7.006;2023-12-28T19:32:41;11.90;99.90
10662;DHT22;5379;51.034;7.006;2023-12-28T19:35:08;11.90;99.90
10662;DHT22;5379;51.034;7.006;2023-12-28T19:37:37;12.00;99.90
10662;DHT22;5379;51.034;7.006;2023-12-28T19:40:05;12.10;99.90
10662;DHT22;5379;51.034;7.006;2023-12-28T19:42:32;12.00;99.90
10662;DHT22;5379;51.034;7.006;2023-12-28T19:45:00;12.00;99.90
10662;DHT22;5379;51.034;7.006;2023-12-28T19:47:27;12.00;99.90
10662;DHT22;5379;51.034;7.006;2023-12-28T19:49:54;12.60;99.90
10662;DHT22;5379;51.034;7.006;2023-12-28T19:52:21;12.00;99.90
10662;DHT22;5379;51.034;7.006;2023-12-28T19:54:49;12.00;99.90
10662;DHT22;5379;51.034;7.006;2023-12-28T19:57:17;12.20;99.90
10662;DHT22;5379;51.034;7.006;2023-12-28T19:59:44;12.10;99.90
10662;DHT22;5379;51.034;7.006;2023-12-28T20:02:13;12.60;99.90
10662;DHT22;5379;51.034;7.006;2023-12-28T20:04:40;11.90;99.90
10662;DHT22;5379;51.034;7.006;2023-12-28T20:07:07;11.90;99.90
10662;DHT22;5379;51.034;7.006;2023-12-28T20:09:34;11.80;99.90
10662;DHT22;5379;51.034;7.006;2023-12-28T20:12:01;11.90;99.90
10662;DHT22;5379;51.034;7.006;2023-12-28T20:14:28;11.90;99.90
10662;DHT22;5379;51.034;7.006;2023-12-28T20:16:54;11.90;99.90
10662;DHT22;5379;51.034;7.006;2023-12-28T20:19:23;12.00;99.90
10662;DHT22;5379;51.034;7.006;2023-12-28T20:21:50;12.10;99.90
10662;DHT22;5379;51.034;7.006;2023-12-28T20:24:18;12.00;99.90
10662;DHT22;5379;51.034;7.006;2023-12-28T20:26:46;11.90;99.90
10662;DHT22;5379;51.034;7.006;2023-12-28T20:29:12;12.10;99.90
10662;DHT22;5379;51.034;7.006;2023-12-28T20:31:39;12.20;99.90
10662;DHT22;5379;51.034;7.006;2023-12-28T20:34:06;12.20;99.90
10662;DHT22;5379;51.034;7.006;2023-12-28T20:36:34;12.10;99.90
10662;DHT22;5379;51.034;7.006;2023-12-28T20:39:01;12.20;99.90
10662;DHT22;5379;51.034;7.006;2023-12-28T20:41:28;12.20;99.90
10662;DHT22;5379;51.034;7.006;2023-12-28T20:43:55;12.40;99.90
10662;DHT22;5379;51.034;7.006;2023-12-28T20:46:21;12.10;99.90
10662;DHT22;5379;51.034;7.006;2023-12-28T20:48:48;12.20;99.90
10662;DHT22;5379;51.034;7.006;2023-12-28T20:51:15;12.20;99.90
10662;DHT22;5379;51.034;7.006;2023-12-28T20:53:44;12.10;99.90
10662;DHT22;5379;51.034;7.006;2023-12-28T20:56:11;12.10;99.90
10662;DHT22;5379;51.034;7.006;2023-12-28T20:58:39;12.20;99.90
10662;DHT22;5379;51.034;7.006;2023-12-28T21:01:05;12.20;99.90
10662;DHT22;5379;51.034;7.006;2023-12-28T21:03:32;12.30;99.90
10662;DHT22;5379;51.034;7.006;2023-12-28T21:05:59;12.30;99.90
10662;DHT22;5379;51.034;7.006;2023-12-28T21:08:26;12.30;99.90
10662;DHT22;5379;51.034;7.006;2023-12-28T21:10:55;12.30;99.90
10662;DHT22;5379;51.034;7.006;2023-12-28T21:13:23;12.40;99.90
10662;DHT22;5379;51.034;7.006;2023-12-28T21:15:53;12.40;99.90
10662;DHT22;5379;51.034;7.006;2023-12-28T21:18:20;12.30;99.90
10662;DHT22;5379;51.034;7.006;2023-12-28T21:20:47;12.50;99.90
10662;DHT22;5379;51.034;7.006;2023-12-28T21:23:16;12.40;99.90
10662;DHT22;5379;51.034;7.006;2023-12-28T21:25:43;12.40;99.90
10662;DHT22;5379;51.034;7.006;2023-12-28T21:28:11;12.50;99.90
10662;DHT22;5379;51.034;7.006;2023-12-28T21:30:38;12.40;99.90
10662;DHT22;5379;51.034;7.006;2023-12-28T21:33:06;12.50;99.90
10662;DHT22;5379;51.034;7.006;2023-12-28T21:35:33;12.40;99.90
10662;DHT22;5379;51.034;7.006;2023-12-28T21:38:00;12.40;99.90
10662;DHT22;5379;51.034;7.006;2023-12-28T21:40:28;12.50;99.90
10662;DHT22;5379;51.034;7.006;2023-12-28T21:42:55;12.40;99.90
10662;DHT22;5379;51.034;7.006;2023-12-28T21:45:23;12.50;99.90